sensor_id;sensor_type;location;lat;lon;timestamp;pressure;altitude;pressure_sealevel;temperature;humidity
49585;BME280;35491;49.142;9.210;2022-08-03T00:00:46;99850.16;;;22.75;49.73
49585;BME280;35491;49.142;9.210;2022-08-03T00:01:50;99842.69;;;22.70;50.03
49585;BME280;35491;49.142;9.210;2022-08-03T00:02:54;99842.31;;;22.67;50.17
49585;BME280;35491;49.142;9.210;2022-08-03T00:03:55;99841.09;;;22.63;50.02
49585;BME280;35491;49.142;9.210;2022-08-03T00:04:59;99839.81;;;22.65;50.12
49585;BME280;35491;49.142;9.210;2022-08-03T00:06:00;99840.50;;;22.61;50.38
49585;BME280;35491;49.142;9.210;2022-08-03T00:07:04;99843.69;;;22.57;50.73
49585;BME280;35491;49.142;9.210;2022-08-03T00:08:05;99842.91;;;22.50;51.29
49585;BME280;35491;49.142;9.210;2022-08-03T00:09:08;99840.44;;;22.49;51.56
49585;BME280;35491;49.142;9.210;2022-08-03T00:10:10;99836.91;;;22.48;51.52
49585;BME280;35491;49.142;9.210;2022-08-03T00:11:17;99839.47;;;22.43;51.60
49585;BME280;35491;49.142;9.210;2022-08-03T00:12:18;99836.78;;;22.36;51.81
49585;BME280;35491;49.142;9.210;2022-08-03T00:13:22;99847.75;;;22.29;52.03
49585;BME280;35491;49.142;9.210;2022-08-03T00:14:23;99842.53;;;22.28;51.81
49585;BME280;35491;49.142;9.210;2022-08-03T00:15:27;99843.50;;;22.34;51.61
49585;BME280;35491;49.142;9.210;2022-08-03T00:16:28;99841.16;;;22.37;50.98
49585;BME280;35491;49.142;9.210;2022-08-03T00:17:32;99836.97;;;22.41;50.73
49585;BME280;35491;49.142;9.210;2022-08-03T00:18:33;99842.56;;;22.47;50.87
49585;BME280;35491;49.142;9.210;2022-08-03T00:19:37;99837.97;;;22.47;50.59
49585;BME280;35491;49.142;9.210;2022-08-03T00:20:38;99838.41;;;22.44;50.41
49585;BME280;35491;49.142;9.210;2022-08-03T00:21:41;99837.56;;;22.43;50.65
49585;BME280;35491;49.142;9.210;2022-08-03T00:22:42;99835.81;;;22.49;50.04
49585;BME280;35491;49.142;9.210;2022-08-03T00:23:46;99832.03;;;22.50;50.16
49585;BME280;35491;49.142;9.210;2022-08-03T00:24:50;99833.09;;;22.49;50.45
49585;BME280;35491;49.142;9.210;2022-08-03T00:25:51;99832.94;;;22.44;50.48
49585;BME280;35491;49.142;9.210;2022-08-03T00:26:57;99831.53;;;22.41;50.52
49585;BME280;35491;49.142;9.210;2022-08-03T00:27:59;99837.38;;;22.38;50.78
49585;BME280;35491;49.142;9.210;2022-08-03T00:29:02;99832.75;;;22.39;50.58
49585;BME280;35491;49.142;9.210;2022-08-03T00:30:04;99834.25;;;22.41;50.57
49585;BME280;35491;49.142;9.210;2022-08-03T00:31:08;99833.09;;;22.49;50.44
49585;BME280;35491;49.142;9.210;2022-08-03T00:32:09;99837.25;;;22.52;50.32
49585;BME280;35491;49.142;9.210;2022-08-03T00:33:13;99835.53;;;22.57;50.01
49585;BME280;35491;49.142;9.210;2022-08-03T00:34:14;99830.19;;;22.63;49.85
49585;BME280;35491;49.142;9.210;2022-08-03T00:35:18;99826.78;;;22.67;50.02
49585;BME280;35491;49.142;9.210;2022-08-03T00:36:20;99831.19;;;22.68;49.99
49585;BME280;35491;49.142;9.210;2022-08-03T00:37:24;99827.53;;;22.74;49.60
49585;BME280;35491;49.142;9.210;2022-08-03T00:38:25;99830.41;;;22.80;49.24
49585;BME280;35491;49.142;9.210;2022-08-03T00:39:28;99830.78;;;22.83;49.10
49585;BME280;35491;49.142;9.210;2022-08-03T00:40:29;99831.94;;;22.87;49.26
49585;BME280;35491;49.142;9.210;2022-08-03T00:41:33;99830.88;;;22.88;49.02
49585;BME280;35491;49.142;9.210;2022-08-03T00:42:38;99833.16;;;22.92;49.11
49585;BME280;35491;49.142;9.210;2022-08-03T00:43:48;99834.22;;;22.90;49.32
49585;BME280;35491;49.142;9.210;2022-08-03T00:44:49;99834.22;;;22.90;48.81
49585;BME280;35491;49.142;9.210;2022-08-03T00:45:53;99838.84;;;22.90;48.93
49585;BME280;35491;49.142;9.210;2022-08-03T00:46:54;99838.25;;;22.88;48.92
49585;BME280;35491;49.142;9.210;2022-08-03T00:47:58;99825.06;;;22.85;49.00
49585;BME280;35491;49.142;9.210;2022-08-03T00:48:59;99832.44;;;22.84;49.13
49585;BME280;35491;49.142;9.210;2022-08-03T00:50:03;99837.88;;;22.84;49.30
49585;BME280;35491;49.142;9.210;2022-08-03T00:51:04;99829.91;;;22.83;49.69
49585;BME280;35491;49.142;9.210;2022-08-03T00:52:09;99830.97;;;22.82;49.67
49585;BME280;35491;49.142;9.210;2022-08-03T00:53:10;99830.34;;;22.68;50.03
49585;BME280;35491;49.142;9.210;2022-08-03T00:54:15;99830.19;;;22.63;50.10
49585;BME280;35491;49.142;9.210;2022-08-03T00:55:17;99825.56;;;22.63;49.79
49585;BME280;35491;49.142;9.210;2022-08-03T00:56:21;99824.75;;;22.63;49.58
49585;BME280;35491;49.142;9.210;2022-08-03T00:57:22;99823.69;;;22.64;49.74
49585;BME280;35491;49.142;9.210;2022-08-03T00:58:28;99824.75;;;22.63;49.74
49585;BME280;35491;49.142;9.210;2022-08-03T00:59:30;99834.84;;;22.62;49.33
49585;BME280;35491;49.142;9.210;2022-08-03T01:00:34;99827.72;;;22.61;49.39
49585;BME280;35491;49.142;9.210;2022-08-03T01:01:38;99826.88;;;22.61;49.29
49585;BME280;35491;49.142;9.210;2022-08-03T01:02:42;99825.81;;;22.62;49.32
49585;BME280;35491;49.142;9.210;2022-08-03T01:03:43;99828.53;;;22.62;49.38
49585;BME280;35491;49.142;9.210;2022-08-03T01:04:47;99828.53;;;22.62;49.50
49585;BME280;35491;49.142;9.210;2022-08-03T01:05:49;99827.72;;;22.61;49.46
49585;BME280;35491;49.142;9.210;2022-08-03T01:06:56;99828.97;;;22.58;49.46
49585;BME280;35491;49.142;9.210;2022-08-03T01:08:02;99826.25;;;22.58;49.41
49585;BME280;35491;49.142;9.210;2022-08-03T01:09:09;99819.38;;;22.56;49.35
49585;BME280;35491;49.142;9.210;2022-08-03T01:10:13;99825.06;;;22.54;49.45
49585;BME280;35491;49.142;9.210;2022-08-03T01:11:23;99824.72;;;22.51;49.79
49585;BME280;35491;49.142;9.210;2022-08-03T01:12:27;99820.22;;;22.38;49.86
49585;BME280;35491;49.142;9.210;2022-08-03T01:13:37;99816.66;;;22.37;49.95
49585;BME280;35491;49.142;9.210;2022-08-03T01:14:43;99822.34;;;22.36;49.70
49585;BME280;35491;49.142;9.210;2022-08-03T01:15:49;99816.91;;;22.36;49.60
49585;BME280;35491;49.142;9.210;2022-08-03T01:16:54;99821.72;;;22.34;49.87
49585;BME280;35491;49.142;9.210;2022-08-03T01:18:03;99816.06;;;22.35;49.69
49585;BME280;35491;49.142;9.210;2022-08-03T01:19:11;99817.94;;;22.35;49.57
49585;BME280;35491;49.142;9.210;2022-08-03T01:20:21;99820.06;;;22.33;49.85
49585;BME280;35491;49.142;9.210;2022-08-03T01:21:25;99823.03;;;22.31;49.62
49585;BME280;35491;49.142;9.210;2022-08-03T01:22:39;99825.97;;;22.29;50.02
49585;BME280;35491;49.142;9.210;2022-08-03T01:25:07;99819.31;;;22.25;49.87
49585;BME280;35491;49.142;9.210;2022-08-03T01:26:18;99814.94;;;22.24;50.01
49585;BME280;35491;49.142;9.210;2022-08-03T01:27:28;99820.38;;;22.24;50.06
49585;BME280;35491;49.142;9.210;2022-08-03T01:28:42;99830.88;;;22.21;49.94
49585;BME280;35491;49.142;9.210;2022-08-03T01:30:01;99813.13;;;22.18;50.14
49585;BME280;35491;49.142;9.210;2022-08-03T01:31:04;99820.25;;;22.19;50.29
49585;BME280;35491;49.142;9.210;2022-08-03T01:32:10;99813.34;;;22.17;50.44
49585;BME280;35491;49.142;9.210;2022-08-03T01:33:14;99824.47;;;22.15;50.42
49585;BME280;35491;49.142;9.210;2022-08-03T01:34:20;99808.56;;;22.12;50.50
49585;BME280;35491;49.142;9.210;2022-08-03T01:35:25;99817.59;;;22.12;50.23
49585;BME280;35491;49.142;9.210;2022-08-03T01:36:31;99815.91;;;22.11;50.32
49585;BME280;35491;49.142;9.210;2022-08-03T01:37:36;99815.06;;;22.11;50.38
49585;BME280;35491;49.142;9.210;2022-08-03T01:38:42;99805.28;;;22.10;50.54
49585;BME280;35491;49.142;9.210;2022-08-03T01:39:44;99807.75;;;22.11;50.08
49585;BME280;35491;49.142;9.210;2022-08-03T01:40:48;99816.75;;;22.12;50.46
49585;BME280;35491;49.142;9.210;2022-08-03T01:41:52;99811.78;;;22.09;50.57
49585;BME280;35491;49.142;9.210;2022-08-03T01:42:59;99806.09;;;22.10;50.24
49585;BME280;35491;49.142;9.210;2022-08-03T01:44:02;99805.84;;;22.12;50.11
49585;BME280;35491;49.142;9.210;2022-08-03T01:45:09;99814.03;;;22.12;50.20
49585;BME280;35491;49.142;9.210;2022-08-03T01:46:11;99799.22;;;22.08;50.69
49585;BME280;35491;49.142;9.210;2022-08-03T01:47:15;99800.03;;;22.08;50.55
49585;BME280;35491;49.142;9.210;2022-08-03T01:48:20;99800.28;;;22.07;50.46
49585;BME280;35491;49.142;9.210;2022-08-03T01:49:24;99812.22;;;22.06;50.73
49585;BME280;35491;49.142;9.210;2022-08-03T01:50:27;99805.09;;;22.05;50.71
49585;BME280;35491;49.142;9.210;2022-08-03T01:51:32;99811.00;;;22.02;50.84
49585;BME280;35491;49.142;9.210;2022-08-03T01:52:34;99813.13;;;22.00;50.92
49585;BME280;35491;49.142;9.210;2022-08-03T01:53:40;99810.84;;;21.96;50.88
49585;BME280;35491;49.142;9.210;2022-08-03T01:54:43;99804.59;;;21.96;51.19
49585;BME280;35491;49.142;9.210;2022-08-03T01:55:48;99809.41;;;21.94;51.11
49585;BME280;35491;49.142;9.210;2022-08-03T01:56:52;99804.19;;;21.92;51.08
49585;BME280;35491;49.142;9.210;2022-08-03T01:57:57;99804.41;;;21.91;51.19
49585;BME280;35491;49.142;9.210;2022-08-03T01:59:01;99805.72;;;21.88;51.40
49585;BME280;35491;49.142;9.210;2022-08-03T02:00:09;99808.88;;;21.85;51.44
49585;BME280;35491;49.142;9.210;2022-08-03T02:01:11;99797.97;;;21.85;51.34
49585;BME280;35491;49.142;9.210;2022-08-03T02:02:15;99801.56;;;21.86;51.14
49585;BME280;35491;49.142;9.210;2022-08-03T02:03:17;99800.09;;;21.83;51.46
49585;BME280;35491;49.142;9.210;2022-08-03T02:04:23;99804.72;;;21.83;51.30
49585;BME280;35491;49.142;9.210;2022-08-03T02:05:25;99798.47;;;21.82;51.69
49585;BME280;35491;49.142;9.210;2022-08-03T02:06:30;99796.78;;;21.81;51.46
49585;BME280;35491;49.142;9.210;2022-08-03T02:07:32;99803.28;;;21.80;51.76
49585;BME280;35491;49.142;9.210;2022-08-03T02:08:36;99793.00;;;21.82;51.69
49585;BME280;35491;49.142;9.210;2022-08-03T02:09:39;99803.47;;;21.78;51.72
49585;BME280;35491;49.142;9.210;2022-08-03T02:10:43;99798.91;;;21.79;51.81
49585;BME280;35491;49.142;9.210;2022-08-03T02:11:46;99800.56;;;21.80;51.86
49585;BME280;35491;49.142;9.210;2022-08-03T02:12:51;99793.06;;;21.75;52.05
49585;BME280;35491;49.142;9.210;2022-08-03T02:13:52;99798.13;;;21.72;52.52
49585;BME280;35491;49.142;9.210;2022-08-03T02:14:57;99794.34;;;21.73;51.90
49585;BME280;35491;49.142;9.210;2022-08-03T02:16:02;99801.91;;;21.71;51.98
49585;BME280;35491;49.142;9.210;2022-08-03T02:17:06;99804.63;;;21.71;52.10
49585;BME280;35491;49.142;9.210;2022-08-03T02:18:08;99794.81;;;21.70;52.17
49585;BME280;35491;49.142;9.210;2022-08-03T02:19:12;99798.81;;;21.67;52.19
49585;BME280;35491;49.142;9.210;2022-08-03T02:20:14;99799.88;;;21.66;52.19
49585;BME280;35491;49.142;9.210;2022-08-03T02:21:18;99790.25;;;21.63;52.28
49585;BME280;35491;49.142;9.210;2022-08-03T02:22:20;99804.91;;;21.62;52.61
49585;BME280;35491;49.142;9.210;2022-08-03T02:23:24;99801.13;;;21.63;52.74
49585;BME280;35491;49.142;9.210;2022-08-03T02:24:26;99795.69;;;21.63;52.39
49585;BME280;35491;49.142;9.210;2022-08-03T02:25:30;99799.25;;;21.64;52.42
49585;BME280;35491;49.142;9.210;2022-08-03T02:26:32;99797.34;;;21.64;52.78
49585;BME280;35491;49.142;9.210;2022-08-03T02:27:41;99804.25;;;21.67;52.50
49585;BME280;35491;49.142;9.210;2022-08-03T02:28:44;99803.03;;;21.63;52.35
49585;BME280;35491;49.142;9.210;2022-08-03T02:29:51;99808.53;;;21.49;53.74
49585;BME280;35491;49.142;9.210;2022-08-03T02:30:53;99805.09;;;21.35;54.48
49585;BME280;35491;49.142;9.210;2022-08-03T02:32:00;99807.75;;;21.17;55.92
49585;BME280;35491;49.142;9.210;2022-08-03T02:33:04;99800.41;;;20.92;56.46
49585;BME280;35491;49.142;9.210;2022-08-03T02:34:11;99808.19;;;20.82;56.95
49585;BME280;35491;49.142;9.210;2022-08-03T02:35:13;99804.22;;;20.84;57.03
49585;BME280;35491;49.142;9.210;2022-08-03T02:36:19;99801.56;;;20.78;57.00
49585;BME280;35491;49.142;9.210;2022-08-03T02:37:20;99813.06;;;20.66;57.13
49585;BME280;35491;49.142;9.210;2022-08-03T02:38:27;99804.78;;;20.54;57.08
49585;BME280;35491;49.142;9.210;2022-08-03T02:39:33;99806.47;;;20.49;57.28
49585;BME280;35491;49.142;9.210;2022-08-03T02:40:42;99798.53;;;20.47;57.52
49585;BME280;35491;49.142;9.210;2022-08-03T02:41:48;99816.34;;;20.36;57.67
49585;BME280;35491;49.142;9.210;2022-08-03T02:42:57;99807.41;;;20.29;58.27
49585;BME280;35491;49.142;9.210;2022-08-03T02:43:59;99807.41;;;20.29;58.03
49585;BME280;35491;49.142;9.210;2022-08-03T02:45:05;99807.41;;;20.22;58.54
49585;BME280;35491;49.142;9.210;2022-08-03T02:46:07;99807.44;;;20.16;58.73
49585;BME280;35491;49.142;9.210;2022-08-03T02:47:14;99806.41;;;20.10;59.10
49585;BME280;35491;49.142;9.210;2022-08-03T02:48:17;99812.06;;;20.08;58.97
49585;BME280;35491;49.142;9.210;2022-08-03T02:49:22;99804.31;;;20.05;58.32
49585;BME280;35491;49.142;9.210;2022-08-03T02:50:25;99804.13;;;20.07;58.63
49585;BME280;35491;49.142;9.210;2022-08-03T02:51:31;99803.28;;;20.06;58.21
49585;BME280;35491;49.142;9.210;2022-08-03T02:52:32;99799.34;;;20.02;58.39
49585;BME280;35491;49.142;9.210;2022-08-03T02:53:38;99804.16;;;20.00;58.31
49585;BME280;35491;49.142;9.210;2022-08-03T02:54:40;99800.41;;;20.01;58.08
49585;BME280;35491;49.142;9.210;2022-08-03T02:55:44;99805.81;;;20.01;58.02
49585;BME280;35491;49.142;9.210;2022-08-03T02:56:46;99805.81;;;20.01;58.12
49585;BME280;35491;49.142;9.210;2022-08-03T02:57:51;99806.00;;;20.00;58.60
49585;BME280;35491;49.142;9.210;2022-08-03T02:58:52;99808.31;;;19.96;58.72
49585;BME280;35491;49.142;9.210;2022-08-03T02:59:57;99803.75;;;19.97;58.68
49585;BME280;35491;49.142;9.210;2022-08-03T03:00:59;99811.47;;;19.93;58.72
49585;BME280;35491;49.142;9.210;2022-08-03T03:02:04;99805.22;;;19.86;58.90
49585;BME280;35491;49.142;9.210;2022-08-03T03:03:08;99807.28;;;19.84;59.00
49585;BME280;35491;49.142;9.210;2022-08-03T03:04:13;99808.94;;;19.85;59.39
49585;BME280;35491;49.142;9.210;2022-08-03T03:05:15;99803.34;;;19.86;59.05
49585;BME280;35491;49.142;9.210;2022-08-03T03:06:19;99809.16;;;19.83;59.19
49585;BME280;35491;49.142;9.210;2022-08-03T03:07:21;99810.81;;;19.84;59.27
49585;BME280;35491;49.142;9.210;2022-08-03T03:08:25;99808.34;;;19.83;59.43
49585;BME280;35491;49.142;9.210;2022-08-03T03:09:27;99818.78;;;19.86;59.42
49585;BME280;35491;49.142;9.210;2022-08-03T03:10:31;99813.53;;;19.84;58.94
49585;BME280;35491;49.142;9.210;2022-08-03T03:11:32;99801.22;;;19.95;59.08
49585;BME280;35491;49.142;9.210;2022-08-03T03:12:38;99806.47;;;19.97;58.87
49585;BME280;35491;49.142;9.210;2022-08-03T03:13:41;99809.34;;;19.95;58.36
49585;BME280;35491;49.142;9.210;2022-08-03T03:14:45;99803.75;;;19.97;58.58
49585;BME280;35491;49.142;9.210;2022-08-03T03:15:46;99810.84;;;19.98;58.50
49585;BME280;35491;49.142;9.210;2022-08-03T03:16:51;99810.00;;;19.97;58.26
49585;BME280;35491;49.142;9.210;2022-08-03T03:17:52;99809.56;;;20.00;58.06
49585;BME280;35491;49.142;9.210;2022-08-03T03:18:59;99812.47;;;20.05;57.94
49585;BME280;35491;49.142;9.210;2022-08-03T03:20:05;99807.25;;;20.04;58.62
49585;BME280;35491;49.142;9.210;2022-08-03T03:21:07;99805.81;;;20.01;58.79
49585;BME280;35491;49.142;9.210;2022-08-03T03:22:12;99807.25;;;20.04;58.60
49585;BME280;35491;49.142;9.210;2022-08-03T03:23:14;99811.41;;;20.06;59.12
49585;BME280;35491;49.142;9.210;2022-08-03T03:24:19;99812.47;;;20.12;58.51
49585;BME280;35491;49.142;9.210;2022-08-03T03:25:20;99805.97;;;20.13;58.18
49585;BME280;35491;49.142;9.210;2022-08-03T03:26:24;99806.78;;;20.20;58.01
49585;BME280;35491;49.142;9.210;2022-08-03T03:27:28;99804.88;;;20.27;57.63
49585;BME280;35491;49.142;9.210;2022-08-03T03:28:31;99803.41;;;20.32;57.48
49585;BME280;35491;49.142;9.210;2022-08-03T03:29:36;99810.28;;;20.34;57.50
49585;BME280;35491;49.142;9.210;2022-08-03T03:30:37;99799.41;;;20.41;56.79
49585;BME280;35491;49.142;9.210;2022-08-03T03:31:41;99801.91;;;20.42;56.90
49585;BME280;35491;49.142;9.210;2022-08-03T03:32:42;99801.47;;;20.46;57.20
49585;BME280;35491;49.142;9.210;2022-08-03T03:33:46;99802.09;;;20.48;57.21
49585;BME280;35491;49.142;9.210;2022-08-03T03:34:50;99801.66;;;20.51;56.87
49585;BME280;35491;49.142;9.210;2022-08-03T03:35:54;99797.47;;;20.55;56.41
49585;BME280;35491;49.142;9.210;2022-08-03T03:36:55;99787.22;;;20.57;56.23
49585;BME280;35491;49.142;9.210;2022-08-03T03:37:59;99792.66;;;20.57;56.46
49585;BME280;35491;49.142;9.210;2022-08-03T03:39:00;99795.13;;;20.58;56.11
49585;BME280;35491;49.142;9.210;2022-08-03T03:40:04;99799.94;;;20.56;56.48
49585;BME280;35491;49.142;9.210;2022-08-03T03:41:08;99796.66;;;20.54;56.18
49585;BME280;35491;49.142;9.210;2022-08-03T03:42:12;99801.84;;;20.56;56.29
49585;BME280;35491;49.142;9.210;2022-08-03T03:43:13;99797.22;;;20.56;55.88
49585;BME280;35491;49.142;9.210;2022-08-03T03:44:18;99792.25;;;20.53;56.31
49585;BME280;35491;49.142;9.210;2022-08-03T03:45:19;99800.59;;;20.52;56.14
49585;BME280;35491;49.142;9.210;2022-08-03T03:46:24;99800.59;;;20.52;56.17
49585;BME280;35491;49.142;9.210;2022-08-03T03:47:27;99794.56;;;20.50;56.21
49585;BME280;35491;49.142;9.210;2022-08-03T03:48:31;99798.75;;;20.46;56.27
49585;BME280;35491;49.142;9.210;2022-08-03T03:49:33;99800.63;;;20.45;56.51
49585;BME280;35491;49.142;9.210;2022-08-03T03:50:39;99804.41;;;20.44;56.46
49585;BME280;35491;49.142;9.210;2022-08-03T03:51:41;99804.19;;;20.46;56.38
49585;BME280;35491;49.142;9.210;2022-08-03T03:52:45;99803.97;;;20.47;56.16
49585;BME280;35491;49.142;9.210;2022-08-03T03:53:55;99804.81;;;20.48;56.29
49585;BME280;35491;49.142;9.210;2022-08-03T03:54:59;99803.16;;;20.47;55.95
49585;BME280;35491;49.142;9.210;2022-08-03T03:56:00;99803.16;;;20.47;56.37
49585;BME280;35491;49.142;9.210;2022-08-03T03:57:04;99804.81;;;20.48;55.93
49585;BME280;35491;49.142;9.210;2022-08-03T03:58:05;99806.47;;;20.49;56.06
49585;BME280;35491;49.142;9.210;2022-08-03T03:59:10;99808.34;;;20.48;56.24
49585;BME280;35491;49.142;9.210;2022-08-03T04:00:11;99808.97;;;20.50;56.02
49585;BME280;35491;49.142;9.210;2022-08-03T04:01:16;99804.34;;;20.51;55.85
49585;BME280;35491;49.142;9.210;2022-08-03T04:02:17;99804.34;;;20.51;56.37
49585;BME280;35491;49.142;9.210;2022-08-03T04:03:21;99800.19;;;20.48;56.46
49585;BME280;35491;49.142;9.210;2022-08-03T04:04:22;99799.16;;;20.49;56.09
49585;BME280;35491;49.142;9.210;2022-08-03T04:05:40;99801.06;;;20.49;56.17
49585;BME280;35491;49.142;9.210;2022-08-03T04:06:56;99797.28;;;20.50;56.01
49585;BME280;35491;49.142;9.210;2022-08-03T04:08:13;99806.03;;;20.52;55.92
49585;BME280;35491;49.142;9.210;2022-08-03T04:09:30;99801.44;;;20.52;56.39
49585;BME280;35491;49.142;9.210;2022-08-03T04:10:53;99805.19;;;20.58;55.96
49585;BME280;35491;49.142;9.210;2022-08-03T04:12:03;99798.47;;;20.61;56.04
49585;BME280;35491;49.142;9.210;2022-08-03T04:13:08;99792.19;;;20.60;55.80
49585;BME280;35491;49.142;9.210;2022-08-03T04:14:12;99799.28;;;20.61;55.80
49585;BME280;35491;49.142;9.210;2022-08-03T04:15:17;99800.34;;;20.60;56.09
49585;BME280;35491;49.142;9.210;2022-08-03T04:16:19;99800.34;;;20.60;55.92
49585;BME280;35491;49.142;9.210;2022-08-03T04:17:23;99810.38;;;20.60;55.93
49585;BME280;35491;49.142;9.210;2022-08-03T04:18:28;99808.72;;;20.58;56.21
49585;BME280;35491;49.142;9.210;2022-08-03T04:19:34;99799.53;;;20.60;55.99
49585;BME280;35491;49.142;9.210;2022-08-03T04:20:42;99806.22;;;20.57;56.25
49585;BME280;35491;49.142;9.210;2022-08-03T04:21:46;99804.56;;;20.56;56.19
49585;BME280;35491;49.142;9.210;2022-08-03T04:22:53;99809.56;;;20.59;55.92
49585;BME280;35491;49.142;9.210;2022-08-03T04:23:58;99806.84;;;20.59;56.18
49585;BME280;35491;49.142;9.210;2022-08-03T04:25:03;99808.28;;;20.62;55.83
49585;BME280;35491;49.142;9.210;2022-08-03T04:26:05;99812.44;;;20.64;56.17
49585;BME280;35491;49.142;9.210;2022-08-03T04:27:11;99811.84;;;20.62;56.21
49585;BME280;35491;49.142;9.210;2022-08-03T04:28:14;99807.25;;;20.63;56.14
49585;BME280;35491;49.142;9.210;2022-08-03T04:29:19;99809.75;;;20.64;56.16
49585;BME280;35491;49.142;9.210;2022-08-03T04:30:20;99805.97;;;20.65;56.13
49585;BME280;35491;49.142;9.210;2022-08-03T04:31:24;99805.56;;;20.68;55.71
49585;BME280;35491;49.142;9.210;2022-08-03T04:32:26;99803.25;;;20.65;56.10
49585;BME280;35491;49.142;9.210;2022-08-03T04:33:31;99805.56;;;20.68;56.26
49585;BME280;35491;49.142;9.210;2022-08-03T04:34:33;99803.03;;;20.67;56.42
49585;BME280;35491;49.142;9.210;2022-08-03T04:35:37;99802.84;;;20.68;56.29
49585;BME280;35491;49.142;9.210;2022-08-03T04:36:43;99812.06;;;20.61;57.42
49585;BME280;35491;49.142;9.210;2022-08-03T04:37:50;99809.75;;;20.64;56.63
49585;BME280;35491;49.142;9.210;2022-08-03T04:38:54;99808.91;;;20.64;56.53
49585;BME280;35491;49.142;9.210;2022-08-03T04:39:58;99814.34;;;20.64;56.77
49585;BME280;35491;49.142;9.210;2022-08-03T04:41:01;99815.16;;;20.64;56.63
49585;BME280;35491;49.142;9.210;2022-08-03T04:42:06;99819.56;;;20.58;57.13
49585;BME280;35491;49.142;9.210;2022-08-03T04:43:07;99820.81;;;20.63;56.96
49585;BME280;35491;49.142;9.210;2022-08-03T04:44:12;99821.25;;;20.60;57.32
49585;BME280;35491;49.142;9.210;2022-08-03T04:45:14;99817.72;;;20.59;57.27
49585;BME280;35491;49.142;9.210;2022-08-03T04:46:18;99813.53;;;20.56;57.42
49585;BME280;35491;49.142;9.210;2022-08-03T04:47:22;99824.22;;;20.51;57.80
49585;BME280;35491;49.142;9.210;2022-08-03T04:48:26;99820.66;;;20.51;57.69
49585;BME280;35491;49.142;9.210;2022-08-03T04:49:28;99821.72;;;20.50;57.83
49585;BME280;35491;49.142;9.210;2022-08-03T04:50:32;99831.59;;;20.37;58.27
49585;BME280;35491;49.142;9.210;2022-08-03T04:51:33;99823.06;;;20.20;58.96
49585;BME280;35491;49.142;9.210;2022-08-03T04:52:40;99824.56;;;20.16;59.23
49585;BME280;35491;49.142;9.210;2022-08-03T04:53:42;99832.50;;;20.04;59.47
49585;BME280;35491;49.142;9.210;2022-08-03T04:54:46;99829.38;;;20.01;59.56
49585;BME280;35491;49.142;9.210;2022-08-03T04:55:48;99827.94;;;19.98;59.43
49585;BME280;35491;49.142;9.210;2022-08-03T04:56:51;99828.56;;;19.93;59.68
49585;BME280;35491;49.142;9.210;2022-08-03T04:57:52;99830.03;;;19.89;59.85
49585;BME280;35491;49.142;9.210;2022-08-03T04:58:56;99831.06;;;19.82;59.96
49585;BME280;35491;49.142;9.210;2022-08-03T04:59:57;99829.41;;;19.74;60.19
49585;BME280;35491;49.142;9.210;2022-08-03T05:01:01;99824.59;;;19.76;60.23
49585;BME280;35491;49.142;9.210;2022-08-03T05:02:02;99825.03;;;19.73;60.01
49585;BME280;35491;49.142;9.210;2022-08-03T05:03:06;99825.88;;;19.73;60.09
49585;BME280;35491;49.142;9.210;2022-08-03T05:04:10;99832.75;;;19.69;60.25
49585;BME280;35491;49.142;9.210;2022-08-03T05:05:11;99830.44;;;19.66;60.48
49585;BME280;35491;49.142;9.210;2022-08-03T05:06:15;99828.34;;;19.68;60.07
49585;BME280;35491;49.142;9.210;2022-08-03T05:07:19;99833.78;;;19.68;60.16
49585;BME280;35491;49.142;9.210;2022-08-03T05:08:23;99834.00;;;19.67;60.34
49585;BME280;35491;49.142;9.210;2022-08-03T05:09:26;99832.75;;;19.69;60.07
49585;BME280;35491;49.142;9.210;2022-08-03T05:12:11;99829.22;;;19.69;60.20
49585;BME280;35491;49.142;9.210;2022-08-03T05:15:06;99825.03;;;19.79;59.75
49585;BME280;35491;49.142;9.210;2022-08-03T05:16:48;99831.06;;;19.82;60.08
49585;BME280;35491;49.142;9.210;2022-08-03T05:18:14;99832.34;;;19.86;59.74
49585;BME280;35491;49.142;9.210;2022-08-03T05:21:54;99829.34;;;20.21;58.68
49585;BME280;35491;49.142;9.210;2022-08-03T05:23:35;99832.06;;;20.21;58.67
49585;BME280;35491;49.142;9.210;2022-08-03T05:34:28;99836.34;;;20.49;57.72
49585;BME280;35491;49.142;9.210;2022-08-03T05:35:32;99838.34;;;20.60;57.33
49585;BME280;35491;49.142;9.210;2022-08-03T05:36:34;99840.44;;;20.65;57.38
49585;BME280;35491;49.142;9.210;2022-08-03T05:37:39;99838.97;;;20.69;57.00
49585;BME280;35491;49.142;9.210;2022-08-03T05:38:40;99841.44;;;20.70;57.10
49585;BME280;35491;49.142;9.210;2022-08-03T05:39:44;99834.78;;;20.73;56.98
49585;BME280;35491;49.142;9.210;2022-08-03T05:40:45;99845.22;;;20.76;56.79
49585;BME280;35491;49.142;9.210;2022-08-03T05:41:49;99838.09;;;20.82;56.74
49585;BME280;35491;49.142;9.210;2022-08-03T05:42:50;99834.28;;;20.90;56.45
49585;BME280;35491;49.142;9.210;2022-08-03T05:43:54;99834.25;;;20.96;56.20
49585;BME280;35491;49.142;9.210;2022-08-03T05:44:58;99837.97;;;21.02;56.37
49585;BME280;35491;49.142;9.210;2022-08-03T05:45:59;99841.09;;;21.06;55.85
49585;BME280;35491;49.142;9.210;2022-08-03T05:47:03;99839.34;;;21.11;56.09
49585;BME280;35491;49.142;9.210;2022-08-03T05:48:07;99842.69;;;21.13;55.98
49585;BME280;35491;49.142;9.210;2022-08-03T05:49:08;99839.19;;;21.06;56.03
49585;BME280;35491;49.142;9.210;2022-08-03T05:50:14;99835.50;;;20.94;56.22
49585;BME280;35491;49.142;9.210;2022-08-03T05:51:15;99839.69;;;20.96;56.34
49585;BME280;35491;49.142;9.210;2022-08-03T05:52:19;99833.63;;;20.94;56.32
49585;BME280;35491;49.142;9.210;2022-08-03T05:53:20;99836.31;;;21.01;56.04
49585;BME280;35491;49.142;9.210;2022-08-03T05:54:24;99834.59;;;21.07;56.15
49585;BME280;35491;49.142;9.210;2022-08-03T05:55:25;99842.31;;;21.10;55.97
49585;BME280;35491;49.142;9.210;2022-08-03T05:56:29;99836.59;;;21.18;55.86
49585;BME280;35491;49.142;9.210;2022-08-03T05:57:33;99837.84;;;21.22;55.40
49585;BME280;35491;49.142;9.210;2022-08-03T05:58:34;99827.59;;;21.24;55.66